Time;durP1;ratioP1;P1;durP2;ratioP2;P2;SDS_P1;SDS_P2;PMS_P1;PMS_P2;Temp;Humidity;BMP_temperature;BMP_pressure;BME280_temperature;BME280_humidity;BME280_pressure;Samples;Min_cycle;Max_cycle;Signal;HPM_P1;HPM_P2
2022/11/19 00:01:52;;;;;;;29.30;11.70;;;;;;;;;;107254;1289;22741;-77
2022/11/19 00:04:18;;;;;;;31.50;14.30;;;;;;;;;;107251;1300;22115;-77
2022/11/19 00:06:45;;;;;;;32.60;13.40;;;;;;;;;;106918;1306;22038;-77
2022/11/19 00:09:13;;;;;;;32.20;13.90;;;;;;;;;;106959;1303;22681;-77
2022/11/19 00:14:25;;;;;;;38.30;13.60;;;;;;;;;;107099;1304;22114;-77
2022/11/19 00:16:51;;;;;;;85.90;32.50;;;;;;;;;;107290;1300;22033;-77
2022/11/19 00:19:18;;;;;;;125.70;45.20;;;;;;;;;;106896;1308;22761;-77
2022/11/19 00:21:45;;;;;;;245.30;91.10;;;;;;;;;;106946;1307;22078;-77
2022/11/19 00:24:12;;;;;;;193.70;84.50;;;;;;;;;;106888;1308;22723;-77
2022/11/19 00:26:39;;;;;;;128.90;63.60;;;;;;;;;;106912;1307;22089;-77
2022/11/19 00:29:05;;;;;;;33.80;17.70;;;;;;;;;;106908;1297;22321;-77
2022/11/19 00:31:32;;;;;;;43.70;22.10;;;;;;;;;;106927;1310;22099;-77
2022/11/19 00:33:59;;;;;;;29.10;14.80;;;;;;;;;;107130;1304;22080;-77
2022/11/19 00:36:25;;;;;;;24.50;11.60;;;;;;;;;;106959;1307;22108;-77
2022/11/19 00:38:52;;;;;;;56.80;28.30;;;;;;;;;;107100;1305;22089;-77
2022/11/19 00:41:19;;;;;;;134.40;67.70;;;;;;;;;;106877;1305;22142;-77
2022/11/19 00:43:45;;;;;;;113.00;58.50;;;;;;;;;;106812;1308;21757;-77
2022/11/19 00:46:26;;;;;;;109.30;54.50;;;;;;;;;;106918;1308;22769;-77
2022/11/19 00:48:53;;;;;;;84.60;43.50;;;;;;;;;;106948;1310;22720;-77
2022/11/19 00:51:21;;;;;;;67.20;36.10;;;;;;;;;;107031;1305;22077;-77
2022/11/19 00:53:47;;;;;;;116.70;46.90;;;;;;;;;;106929;1308;22128;-78
2022/11/19 00:56:16;;;;;;;122.30;48.70;;;;;;;;;;106985;1310;22124;-77
2022/11/19 00:58:43;;;;;;;168.10;69.70;;;;;;;;;;106998;1295;21973;-77
2022/11/19 01:01:10;;;;;;;218.80;91.40;;;;;;;;;;106914;1310;22053;-77
2022/11/19 01:03:38;;;;;;;204.20;77.80;;;;;;;;;;106926;1308;21931;-77
2022/11/19 01:06:05;;;;;;;98.00;39.90;;;;;;;;;;106921;1308;22056;-77
2022/11/19 01:08:31;;;;;;;76.30;28.40;;;;;;;;;;106981;1309;21708;-77
2022/11/19 01:11:05;;;;;;;87.50;32.10;;;;;;;;;;107169;1300;22046;-77
2022/11/19 01:13:33;;;;;;;47.60;21.20;;;;;;;;;;106968;1305;22179;-77
2022/11/19 01:16:07;;;;;;;33.30;14.10;;;;;;;;;;106942;1309;22261;-77
2022/11/19 01:18:35;;;;;;;25.40;11.50;;;;;;;;;;106938;1307;22073;-77
2022/11/19 01:21:02;;;;;;;23.10;10.50;;;;;;;;;;107086;1299;22056;-77
2022/11/19 01:23:29;;;;;;;44.70;27.30;;;;;;;;;;106778;1307;22637;-77
2022/11/19 01:25:55;;;;;;;37.90;20.10;;;;;;;;;;106764;1310;22099;-77
2022/11/19 01:28:22;;;;;;;21.30;10.60;;;;;;;;;;106896;1306;22079;-77
2022/11/19 01:30:49;;;;;;;17.90;9.20;;;;;;;;;;106753;1307;22057;-77
2022/11/19 01:33:16;;;;;;;20.60;10.60;;;;;;;;;;106938;1307;22915;-77
2022/11/19 01:35:42;;;;;;;31.10;12.30;;;;;;;;;;106930;1307;22073;-77
2022/11/19 01:38:09;;;;;;;49.80;19.80;;;;;;;;;;106954;1306;22818;-77
2022/11/19 01:40:43;;;;;;;125.90;48.60;;;;;;;;;;106913;1307;22107;-77
2022/11/19 01:43:11;;;;;;;35.70;16.50;;;;;;;;;;106859;1307;22377;-77
2022/11/19 01:45:39;;;;;;;30.90;12.40;;;;;;;;;;106927;1307;22898;-77
2022/11/19 01:48:08;;;;;;;34.80;14.80;;;;;;;;;;106926;1306;22079;-77
2022/11/19 01:50:38;;;;;;;28.10;11.10;;;;;;;;;;106901;1307;22318;-77
2022/11/19 01:53:07;;;;;;;26.50;9.10;;;;;;;;;;106784;1310;22068;-77
2022/11/19 01:55:34;;;;;;;18.50;8.50;;;;;;;;;;106793;1305;21922;-77
2022/11/19 01:58:02;;;;;;;19.90;8.90;;;;;;;;;;106941;1306;22725;-77
2022/11/19 02:00:28;;;;;;;16.00;7.20;;;;;;;;;;106960;1305;22080;-77
2022/11/19 02:02:58;;;;;;;14.90;7.20;;;;;;;;;;106758;1310;22065;-77
2022/11/19 02:05:25;;;;;;;16.40;7.10;;;;;;;;;;107103;1291;22024;-77
2022/11/19 02:07:54;;;;;;;16.40;8.40;;;;;;;;;;106953;1306;22144;-77
2022/11/19 02:10:27;;;;;;;18.80;8.70;;;;;;;;;;106908;1307;22027;-77
2022/11/19 02:13:13;;;;;;;18.10;7.80;;;;;;;;;;106904;1292;21948;-77
2022/11/19 02:15:48;;;;;;;17.40;8.10;;;;;;;;;;106928;1307;22077;-78
2022/11/19 02:18:18;;;;;;;15.10;7.00;;;;;;;;;;106984;1306;22106;-77
2022/11/19 02:21:03;;;;;;;18.50;7.90;;;;;;;;;;106906;1306;22062;-77
2022/11/19 02:23:42;;;;;;;15.90;7.30;;;;;;;;;;106887;1307;22072;-77
2022/11/19 02:26:24;;;;;;;19.00;8.00;;;;;;;;;;106905;1306;22042;-77
2022/11/19 02:28:52;;;;;;;14.80;7.10;;;;;;;;;;107238;1281;22669;-77
2022/11/19 02:31:21;;;;;;;18.00;7.80;;;;;;;;;;106748;1306;22083;-78
2022/11/19 02:34:07;;;;;;;14.80;6.80;;;;;;;;;;106897;1301;22069;-78
2022/11/19 02:36:37;;;;;;;20.80;8.20;;;;;;;;;;106922;1307;22112;-77
2022/11/19 02:39:07;;;;;;;19.00;8.10;;;;;;;;;;106910;1307;22006;-77
2022/11/19 02:41:39;;;;;;;19.40;7.90;;;;;;;;;;106875;1306;22079;-78
2022/11/19 02:47:02;;;;;;;17.70;8.50;;;;;;;;;;106945;1306;22736;-77
2022/11/19 02:49:30;;;;;;;19.80;7.70;;;;;;;;;;106900;1306;22114;-77
2022/11/19 02:51:57;;;;;;;17.40;7.40;;;;;;;;;;106834;1306;22313;-78
2022/11/19 02:54:25;;;;;;;16.60;7.60;;;;;;;;;;106763;1309;22738;-78
2022/11/19 02:56:53;;;;;;;19.10;7.70;;;;;;;;;;106857;1305;22084;-77
2022/11/19 03:05:04;;;;;;;17.70;8.40;;;;;;;;;;106880;1306;21939;-77
2022/11/19 03:07:31;;;;;;;18.70;8.90;;;;;;;;;;106949;1304;22081;-78
2022/11/19 03:10:01;;;;;;;21.50;8.80;;;;;;;;;;106885;1306;22048;-78
2022/11/19 03:12:33;;;;;;;19.40;8.70;;;;;;;;;;106700;1307;22109;-78
2022/11/19 03:18:07;;;;;;;16.50;7.20;;;;;;;;;;106865;1293;22765;-78
2022/11/19 03:20:34;;;;;;;17.00;7.30;;;;;;;;;;106716;1307;22049;-78
2022/11/19 03:23:12;;;;;;;22.20;9.60;;;;;;;;;;106831;1307;22081;-77
2022/11/19 03:25:44;;;;;;;21.30;9.40;;;;;;;;;;106739;1307;22055;-77
2022/11/19 03:28:15;;;;;;;24.10;9.90;;;;;;;;;;106895;1292;22079;-77
2022/11/19 03:30:43;;;;;;;24.30;9.70;;;;;;;;;;106903;1307;22054;-78
2022/11/19 03:33:13;;;;;;;26.40;10.00;;;;;;;;;;106742;1307;22133;-78
2022/11/19 03:35:44;;;;;;;22.80;10.60;;;;;;;;;;106858;1307;22073;-77
2022/11/19 03:38:13;;;;;;;23.10;10.80;;;;;;;;;;106854;1307;22638;-78
2022/11/19 03:40:40;;;;;;;22.60;10.20;;;;;;;;;;106796;1307;21726;-77
2022/11/19 03:43:08;;;;;;;21.30;9.90;;;;;;;;;;106751;1307;22078;-78
2022/11/19 03:45:39;;;;;;;20.80;9.30;;;;;;;;;;106787;1306;22061;-77
2022/11/19 03:48:05;;;;;;;21.50;10.10;;;;;;;;;;106903;1307;22054;-78
2022/11/19 03:50:37;;;;;;;21.60;9.70;;;;;;;;;;107070;1298;22711;-77
2022/11/19 03:53:03;;;;;;;19.50;8.00;;;;;;;;;;106778;1307;22342;-78
2022/11/19 03:55:33;;;;;;;20.60;8.80;;;;;;;;;;106671;1304;22088;-78
2022/11/19 03:58:03;;;;;;;22.90;10.40;;;;;;;;;;106861;1302;22616;-78
2022/11/19 04:00:30;;;;;;;22.10;10.40;;;;;;;;;;106778;1300;22083;-78
2022/11/19 04:02:57;;;;;;;22.90;11.60;;;;;;;;;;106781;1301;22053;-77
2022/11/19 04:05:24;;;;;;;22.70;11.00;;;;;;;;;;106887;1307;22107;-77
2022/11/19 04:07:51;;;;;;;23.90;10.80;;;;;;;;;;106896;1307;22776;-78
2022/11/19 04:10:19;;;;;;;26.10;12.20;;;;;;;;;;106751;1307;22148;-78
2022/11/19 04:12:46;;;;;;;26.30;11.90;;;;;;;;;;106711;1308;22078;-78
2022/11/19 04:15:14;;;;;;;24.50;11.00;;;;;;;;;;106575;1303;22106;-78
2022/11/19 04:17:42;;;;;;;26.90;11.40;;;;;;;;;;106623;1308;22072;-78
2022/11/19 04:20:09;;;;;;;24.50;10.50;;;;;;;;;;106728;1309;22644;-78
2022/11/19 04:22:37;;;;;;;24.90;11.00;;;;;;;;;;106632;1310;22126;-78
2022/11/19 04:25:04;;;;;;;23.20;10.20;;;;;;;;;;106728;1309;22129;-78
2022/11/19 04:27:33;;;;;;;22.20;8.90;;;;;;;;;;106698;1309;22796;-78
2022/11/19 04:30:01;;;;;;;25.50;11.30;;;;;;;;;;106754;1309;22144;-78
2022/11/19 04:32:29;;;;;;;28.40;11.30;;;;;;;;;;106706;1309;22753;-78
2022/11/19 04:34:55;;;;;;;25.40;11.40;;;;;;;;;;106653;1304;22079;-78
2022/11/19 04:37:23;;;;;;;25.50;10.70;;;;;;;;;;106714;1309;22741;-78
2022/11/19 04:39:51;;;;;;;25.80;11.00;;;;;;;;;;106661;1310;22754;-78
2022/11/19 04:42:18;;;;;;;24.80;11.50;;;;;;;;;;106795;1283;22756;-78
2022/11/19 04:44:45;;;;;;;28.70;12.90;;;;;;;;;;106706;1302;22622;-78
2022/11/19 04:47:13;;;;;;;26.70;12.30;;;;;;;;;;106742;1309;22373;-78
2022/11/19 04:49:41;;;;;;;26.20;11.80;;;;;;;;;;106676;1309;21952;-78
2022/11/19 04:52:08;;;;;;;30.00;13.10;;;;;;;;;;106689;1309;22634;-78
2022/11/19 04:54:36;;;;;;;29.80;13.50;;;;;;;;;;106613;1304;22100;-78
2022/11/19 04:57:02;;;;;;;30.60;13.10;;;;;;;;;;106656;1310;22070;-78
2022/11/19 04:59:30;;;;;;;29.90;13.50;;;;;;;;;;106587;1310;22713;-78
2022/11/19 05:01:56;;;;;;;25.90;11.30;;;;;;;;;;106668;1309;22081;-79
2022/11/19 05:04:24;;;;;;;28.60;11.50;;;;;;;;;;106643;1309;22981;-78
2022/11/19 05:06:51;;;;;;;23.80;10.60;;;;;;;;;;106616;1309;22644;-78
2022/11/19 05:09:19;;;;;;;26.30;10.20;;;;;;;;;;106783;1302;22703;-78
2022/11/19 05:11:48;;;;;;;26.10;10.10;;;;;;;;;;106612;1309;21948;-78
2022/11/19 05:14:17;;;;;;;30.70;13.50;;;;;;;;;;106702;1309;22831;-78
2022/11/19 05:16:46;;;;;;;29.00;13.20;;;;;;;;;;106665;1310;22058;-78
2022/11/19 05:19:15;;;;;;;26.50;12.50;;;;;;;;;;106592;1310;22412;-78
2022/11/19 05:21:44;;;;;;;26.40;12.00;;;;;;;;;;106596;1310;22699;-78
2022/11/19 05:24:14;;;;;;;28.90;12.20;;;;;;;;;;106784;1303;22219;-78
2022/11/19 05:26:43;;;;;;;27.10;12.50;;;;;;;;;;106598;1309;22137;-78
2022/11/19 05:29:12;;;;;;;28.30;13.00;;;;;;;;;;106675;1309;22105;-78
2022/11/19 05:31:41;;;;;;;29.20;14.60;;;;;;;;;;106810;1302;22673;-78
2022/11/19 05:34:10;;;;;;;34.40;14.10;;;;;;;;;;106701;1309;22067;-79
2022/11/19 05:36:39;;;;;;;34.50;14.50;;;;;;;;;;106597;1309;22055;-78
2022/11/19 05:39:08;;;;;;;33.80;14.50;;;;;;;;;;106592;1310;22094;-78
2022/11/19 05:41:37;;;;;;;31.20;13.90;;;;;;;;;;106746;1303;22088;-78
2022/11/19 05:44:06;;;;;;;34.10;14.30;;;;;;;;;;106617;1310;22080;-78
2022/11/19 05:46:35;;;;;;;28.60;13.10;;;;;;;;;;106678;1309;22096;-79
2022/11/19 05:49:04;;;;;;;27.20;11.90;;;;;;;;;;106666;1309;22130;-79
2022/11/19 05:51:33;;;;;;;29.70;11.20;;;;;;;;;;106602;1309;22791;-78
2022/11/19 05:54:03;;;;;;;36.80;14.40;;;;;;;;;;106620;1309;22637;-79
2022/11/19 05:56:32;;;;;;;34.00;15.00;;;;;;;;;;106689;1309;22071;-79
2022/11/19 05:59:01;;;;;;;41.90;16.00;;;;;;;;;;106670;1294;22063;-78
2022/11/19 06:01:31;;;;;;;38.10;16.70;;;;;;;;;;106640;1310;22105;-79
2022/11/19 06:04:00;;;;;;;38.90;15.80;;;;;;;;;;106593;1307;22059;-79
2022/11/19 06:06:29;;;;;;;31.30;14.90;;;;;;;;;;106601;1309;22041;-78
2022/11/19 06:08:58;;;;;;;35.70;14.80;;;;;;;;;;106604;1309;22072;-78
2022/11/19 06:18:22;;;;;;;34.70;14.60;;;;;;;;;;100423;1336;545045;-83
2022/11/19 06:20:49;;;;;;;33.20;14.80;;;;;;;;;;102429;1318;22488;-82
2022/11/19 06:23:16;;;;;;;39.50;17.20;;;;;;;;;;102463;1313;22499;-82
2022/11/19 06:25:42;;;;;;;36.40;15.70;;;;;;;;;;102435;1317;22481;-86
2022/11/19 06:28:09;;;;;;;37.80;17.00;;;;;;;;;;102451;1314;24425;-80
2022/11/19 06:30:36;;;;;;;41.70;17.30;;;;;;;;;;102357;1318;22490;-81
2022/11/19 06:33:03;;;;;;;48.20;20.20;;;;;;;;;;101572;1316;1347709;-83
2022/11/19 06:35:29;;;;;;;51.70;21.60;;;;;;;;;;102581;1317;22548;-82
2022/11/19 06:37:56;;;;;;;47.10;21.50;;;;;;;;;;102782;1316;24367;-82
2022/11/19 06:40:22;;;;;;;39.80;17.70;;;;;;;;;;102774;1316;25323;-81
2022/11/19 06:42:49;;;;;;;36.60;15.20;;;;;;;;;;103064;1310;25260;-81
2022/11/19 06:45:16;;;;;;;37.00;16.90;;;;;;;;;;103642;1303;22467;-80
2022/11/19 06:47:45;;;;;;;40.10;17.60;;;;;;;;;;103540;1303;22461;-82
2022/11/19 06:50:12;;;;;;;34.70;15.80;;;;;;;;;;103546;1303;22601;-80
2022/11/19 06:52:39;;;;;;;38.70;16.70;;;;;;;;;;103614;1299;23206;-81
2022/11/19 06:55:05;;;;;;;32.50;16.10;;;;;;;;;;103559;1298;22509;-83
2022/11/19 06:57:32;;;;;;;37.10;17.20;;;;;;;;;;103614;1304;25277;-82
2022/11/19 06:59:59;;;;;;;34.80;14.70;;;;;;;;;;103548;1294;22465;-81
2022/11/19 07:02:27;;;;;;;44.90;17.30;;;;;;;;;;103539;1292;24180;-80
2022/11/19 07:04:53;;;;;;;37.00;16.00;;;;;;;;;;103498;1306;24226;-80
2022/11/19 07:07:20;;;;;;;38.70;16.90;;;;;;;;;;103583;1306;24257;-83
2022/11/19 07:09:47;;;;;;;40.60;17.00;;;;;;;;;;107182;1297;22057;-79
2022/11/19 07:12:14;;;;;;;40.80;18.00;;;;;;;;;;106773;1306;22739;-78
2022/11/19 07:14:41;;;;;;;49.10;20.30;;;;;;;;;;106919;1304;22126;-79
2022/11/19 07:17:07;;;;;;;54.00;21.70;;;;;;;;;;106881;1306;22061;-78
2022/11/19 07:19:34;;;;;;;56.80;21.60;;;;;;;;;;106788;1306;22103;-79
2022/11/19 07:22:00;;;;;;;47.80;21.00;;;;;;;;;;106663;1306;22070;-79
2022/11/19 07:24:27;;;;;;;39.10;17.10;;;;;;;;;;106765;1306;22047;-79
2022/11/19 07:26:54;;;;;;;40.30;17.70;;;;;;;;;;106774;1306;22765;-78
2022/11/19 07:29:21;;;;;;;36.00;15.00;;;;;;;;;;106807;1301;22073;-79
2022/11/19 07:31:49;;;;;;;33.90;13.40;;;;;;;;;;106872;1307;22767;-79
2022/11/19 07:34:16;;;;;;;50.80;17.50;;;;;;;;;;106859;1302;22783;-79
2022/11/19 07:36:43;;;;;;;48.00;18.90;;;;;;;;;;106870;1284;22035;-79
2022/11/19 07:39:10;;;;;;;36.90;14.20;;;;;;;;;;106826;1306;22817;-79
2022/11/19 07:44:22;;;;;;;35.60;14.30;;;;;;;;;;106775;1306;22065;-79
2022/11/19 07:46:49;;;;;;;34.00;14.40;;;;;;;;;;106784;1306;22061;-78
2022/11/19 07:49:16;;;;;;;33.60;14.50;;;;;;;;;;106770;1306;22054;-78
2022/11/19 07:51:43;;;;;;;33.20;13.20;;;;;;;;;;107066;1299;22097;-79
2022/11/19 07:54:10;;;;;;;32.60;14.00;;;;;;;;;;106741;1305;22110;-79
2022/11/19 07:56:37;;;;;;;34.30;13.90;;;;;;;;;;106940;1291;22046;-79
2022/11/19 07:59:04;;;;;;;32.40;13.30;;;;;;;;;;106824;1302;23219;-79
2022/11/19 08:01:31;;;;;;;30.80;13.70;;;;;;;;;;106762;1306;21722;-79
2022/11/19 08:03:58;;;;;;;37.30;15.40;;;;;;;;;;106761;1306;23232;-77
2022/11/19 08:06:25;;;;;;;34.80;15.30;;;;;;;;;;106783;1306;22087;-79
2022/11/19 08:08:53;;;;;;;31.20;14.30;;;;;;;;;;106776;1302;22775;-79
2022/11/19 08:11:20;;;;;;;30.50;13.20;;;;;;;;;;106756;1305;22074;-78
2022/11/19 08:13:47;;;;;;;26.90;12.80;;;;;;;;;;106750;1305;22087;-80
2022/11/19 08:18:10;;;;;;;33.10;13.50;;;;;;;;;;106772;1305;22075;-79
2022/11/19 08:19:03;;;;;;;32.90;14.60;;;;;;;;;;106758;1306;22063;-79
2022/11/19 08:21:30;;;;;;;29.80;15.30;;;;;;;;;;106754;1306;22765;-77
2022/11/19 08:23:57;;;;;;;30.60;13.40;;;;;;;;;;106737;1306;22768;-77
2022/11/19 08:26:24;;;;;;;32.80;14.90;;;;;;;;;;106864;1306;22098;-76
2022/11/19 08:28:50;;;;;;;34.10;13.90;;;;;;;;;;106866;1306;22081;-77
2022/11/19 08:31:18;;;;;;;33.50;15.20;;;;;;;;;;106831;1306;22082;-76
2022/11/19 08:33:45;;;;;;;43.40;15.60;;;;;;;;;;106776;1306;22762;-77
2022/11/19 08:36:12;;;;;;;50.40;16.80;;;;;;;;;;106915;1306;22100;-76
2022/11/19 08:38:38;;;;;;;25.70;13.30;;;;;;;;;;106852;1306;22795;-76
2022/11/19 08:43:50;;;;;;;27.40;11.80;;;;;;;;;;106900;1299;22082;-76
2022/11/19 08:46:17;;;;;;;31.70;14.60;;;;;;;;;;106896;1301;22079;-76
2022/11/19 08:48:43;;;;;;;32.70;14.70;;;;;;;;;;106785;1306;22062;-76
2022/11/19 08:51:13;;;;;;;34.20;14.20;;;;;;;;;;106879;1306;22067;-76
2022/11/19 08:53:40;;;;;;;36.20;15.60;;;;;;;;;;107157;1285;22072;-76
2022/11/19 08:56:06;;;;;;;38.10;16.00;;;;;;;;;;106842;1306;22082;-76
2022/11/19 08:58:33;;;;;;;32.90;15.60;;;;;;;;;;106855;1306;22100;-75
2022/11/19 09:01:07;;;;;;;31.70;14.40;;;;;;;;;;107093;1299;22081;-75
2022/11/19 09:03:34;;;;;;;39.40;18.10;;;;;;;;;;106749;1306;22907;-76
2022/11/19 09:06:00;;;;;;;32.20;16.80;;;;;;;;;;106875;1306;22600;-77
2022/11/19 09:08:27;;;;;;;32.10;13.60;;;;;;;;;;106924;1306;22084;-76
2022/11/19 09:10:54;;;;;;;28.10;12.40;;;;;;;;;;106860;1306;21961;-76
2022/11/19 09:13:21;;;;;;;24.50;13.00;;;;;;;;;;106938;1306;22687;-76
2022/11/19 09:15:48;;;;;;;28.10;13.00;;;;;;;;;;107140;1299;22037;-78
2022/11/19 09:18:15;;;;;;;24.40;11.00;;;;;;;;;;106912;1306;22043;-77
2022/11/19 09:20:41;;;;;;;28.00;11.70;;;;;;;;;;106908;1307;22361;-77
2022/11/19 09:23:08;;;;;;;34.00;13.40;;;;;;;;;;106855;1305;22190;-77
2022/11/19 09:25:35;;;;;;;31.00;14.20;;;;;;;;;;106769;1307;22801;-77
2022/11/19 09:28:05;;;;;;;29.60;12.40;;;;;;;;;;106793;1307;22088;-77
2022/11/19 09:30:32;;;;;;;25.60;11.90;;;;;;;;;;106776;1307;22088;-79
2022/11/19 09:32:59;;;;;;;26.50;11.30;;;;;;;;;;106717;1308;22070;-78
2022/11/19 09:35:25;;;;;;;25.40;11.90;;;;;;;;;;106727;1309;22052;-78
2022/11/19 09:37:52;;;;;;;24.00;11.00;;;;;;;;;;106751;1309;22326;-78
2022/11/19 09:40:20;;;;;;;16.80;8.70;;;;;;;;;;107092;1299;22047;-79
2022/11/19 09:42:47;;;;;;;21.60;9.80;;;;;;;;;;106696;1306;22088;-78
2022/11/19 09:45:32;;;;;;;22.70;10.10;;;;;;;;;;106732;1295;22048;-78
2022/11/19 09:48:07;;;;;;;20.30;8.20;;;;;;;;;;106848;1306;22079;-79
2022/11/19 09:50:44;;;;;;;16.30;7.20;;;;;;;;;;106797;1306;22040;-79
2022/11/19 09:53:16;;;;;;;13.60;6.30;;;;;;;;;;106860;1306;22154;-79
2022/11/19 09:55:44;;;;;;;14.10;6.30;;;;;;;;;;106796;1306;22079;-79
2022/11/19 09:58:21;;;;;;;12.90;6.10;;;;;;;;;;106731;1306;22084;-79
2022/11/19 10:00:48;;;;;;;12.10;6.20;;;;;;;;;;106786;1306;22069;-79
2022/11/19 10:03:18;;;;;;;12.70;5.60;;;;;;;;;;106837;1302;22400;-78
2022/11/19 10:06:03;;;;;;;13.30;5.90;;;;;;;;;;106785;1307;22089;-79
2022/11/19 10:08:37;;;;;;;9.40;3.80;;;;;;;;;;106771;1306;22278;-80
2022/11/19 10:11:13;;;;;;;7.50;3.00;;;;;;;;;;106785;1306;22096;-79
2022/11/19 10:13:58;;;;;;;10.50;3.90;;;;;;;;;;106740;1309;22113;-80
2022/11/19 10:16:30;;;;;;;10.00;3.90;;;;;;;;;;106883;1308;22104;-79
2022/11/19 10:19:15;;;;;;;10.60;4.40;;;;;;;;;;106638;1310;22027;-80
2022/11/19 10:21:51;;;;;;;13.30;5.40;;;;;;;;;;106729;1310;22087;-81
2022/11/19 10:24:24;;;;;;;12.30;5.00;;;;;;;;;;106777;1309;22121;-80
2022/11/19 10:26:57;;;;;;;16.80;6.60;;;;;;;;;;106857;1309;22049;-81
2022/11/19 10:29:26;;;;;;;17.60;6.50;;;;;;;;;;106710;1304;21926;-82
2022/11/19 10:31:53;;;;;;;11.10;4.00;;;;;;;;;;106929;1306;21712;-82
2022/11/19 10:34:26;;;;;;;8.80;3.90;;;;;;;;;;106704;1309;22044;-82
2022/11/19 10:36:56;;;;;;;9.80;4.30;;;;;;;;;;106740;1309;22119;-81
2022/11/19 10:39:22;;;;;;;12.30;4.70;;;;;;;;;;106866;1309;22726;-79
2022/11/19 10:41:58;;;;;;;10.90;4.50;;;;;;;;;;106747;1310;22101;-82
2022/11/19 10:44:39;;;;;;;10.70;4.50;;;;;;;;;;107026;1298;22074;-81
2022/11/19 10:47:11;;;;;;;9.10;3.40;;;;;;;;;;106854;1306;22074;-81
2022/11/19 10:49:39;;;;;;;9.20;3.50;;;;;;;;;;106757;1308;22083;-82
2022/11/19 10:52:24;;;;;;;11.30;3.90;;;;;;;;;;106845;1309;22185;-82
2022/11/19 10:54:53;;;;;;;10.50;3.60;;;;;;;;;;106854;1308;22117;-81
2022/11/19 10:57:20;;;;;;;11.70;4.50;;;;;;;;;;106689;1309;22202;-80
2022/11/19 10:59:48;;;;;;;9.30;3.50;;;;;;;;;;106884;1308;22049;-81
2022/11/19 11:02:18;;;;;;;7.70;2.70;;;;;;;;;;106743;1309;22070;-81
2022/11/19 11:05:18;;;;;;;8.00;2.90;;;;;;;;;;106811;1309;22052;-81
2022/11/19 11:07:51;;;;;;;9.10;3.20;;;;;;;;;;106577;1312;22322;-81
2022/11/19 11:10:24;;;;;;;7.20;2.70;;;;;;;;;;106637;1306;22160;-79
2022/11/19 11:15:45;;;;;;;7.40;2.50;;;;;;;;;;106413;1313;22173;-81
2022/11/19 11:18:13;;;;;;;8.30;3.60;;;;;;;;;;106252;1313;22213;-80
2022/11/19 11:20:48;;;;;;;8.10;3.60;;;;;;;;;;106478;1313;22145;-81
2022/11/19 11:23:18;;;;;;;10.40;4.00;;;;;;;;;;106444;1313;22804;-81
2022/11/19 11:26:03;;;;;;;9.90;4.00;;;;;;;;;;106430;1313;22137;-80
2022/11/19 11:28:30;;;;;;;13.80;5.10;;;;;;;;;;106516;1312;22139;-81
2022/11/19 11:31:01;;;;;;;12.40;5.00;;;;;;;;;;106495;1313;22117;-80
2022/11/19 11:33:41;;;;;;;10.50;4.80;;;;;;;;;;106487;1312;22131;-80
2022/11/19 11:36:13;;;;;;;10.00;4.70;;;;;;;;;;106287;1315;22866;-80
2022/11/19 11:38:47;;;;;;;10.30;4.50;;;;;;;;;;106400;1313;22878;-78
2022/11/19 11:41:18;;;;;;;9.90;4.10;;;;;;;;;;106461;1298;22192;-78
2022/11/19 11:44:05;;;;;;;9.20;4.00;;;;;;;;;;106452;1311;22080;-79
2022/11/19 11:46:52;;;;;;;9.40;4.00;;;;;;;;;;106706;1309;22084;-79
2022/11/19 11:49:23;;;;;;;8.50;3.40;;;;;;;;;;106854;1308;22785;-78
2022/11/19 11:51:54;;;;;;;9.20;4.00;;;;;;;;;;106701;1309;22090;-79
2022/11/19 11:54:21;;;;;;;7.70;3.50;;;;;;;;;;106673;1309;23076;-79
2022/11/19 11:56:48;;;;;;;8.90;3.60;;;;;;;;;;106677;1310;22688;-78
2022/11/19 11:59:14;;;;;;;9.40;4.10;;;;;;;;;;106699;1309;22079;-78
2022/11/19 12:01:41;;;;;;;10.30;4.30;;;;;;;;;;106765;1309;22109;-78
2022/11/19 12:04:10;;;;;;;7.70;3.40;;;;;;;;;;106626;1309;22167;-79
2022/11/19 12:06:43;;;;;;;9.30;4.10;;;;;;;;;;106688;1310;22060;-78
2022/11/19 12:09:29;;;;;;;10.60;4.70;;;;;;;;;;106720;1309;22257;-78
2022/11/19 12:12:02;;;;;;;18.70;6.10;;;;;;;;;;106665;1310;22799;-78
2022/11/19 12:14:43;;;;;;;10.20;4.50;;;;;;;;;;106651;1309;22045;-79
2022/11/19 12:17:20;;;;;;;9.20;3.90;;;;;;;;;;106631;1310;22071;-78
2022/11/19 12:19:56;;;;;;;12.30;4.70;;;;;;;;;;106590;1306;22113;-78
2022/11/19 12:22:27;;;;;;;11.60;5.30;;;;;;;;;;106547;1304;22089;-78
2022/11/19 12:25:13;;;;;;;10.70;5.10;;;;;;;;;;106651;1312;22063;-78
2022/11/19 12:27:41;;;;;;;10.30;5.20;;;;;;;;;;106613;1311;22072;-78
2022/11/19 12:30:17;;;;;;;10.20;4.40;;;;;;;;;;106684;1309;21974;-79
2022/11/19 12:33:02;;;;;;;11.80;5.40;;;;;;;;;;106634;1310;22082;-79
2022/11/19 12:35:39;;;;;;;13.10;5.70;;;;;;;;;;106699;1309;22151;-79
2022/11/19 12:38:25;;;;;;;11.50;5.20;;;;;;;;;;106583;1312;22774;-79
2022/11/19 12:40:53;;;;;;;12.90;5.60;;;;;;;;;;106601;1312;22055;-78
2022/11/19 12:43:35;;;;;;;12.50;5.50;;;;;;;;;;106614;1287;22083;-78
2022/11/19 12:46:03;;;;;;;13.50;6.10;;;;;;;;;;106595;1312;22930;-79
2022/11/19 12:48:30;;;;;;;16.80;7.20;;;;;;;;;;106708;1310;22107;-78
2022/11/19 12:51:04;;;;;;;15.80;7.10;;;;;;;;;;106705;1309;22540;-79
2022/11/19 12:53:44;;;;;;;13.10;6.00;;;;;;;;;;106640;1310;22073;-79
2022/11/19 12:56:22;;;;;;;10.90;5.50;;;;;;;;;;106953;1296;27806;-79
2022/11/19 12:58:55;;;;;;;13.50;6.40;;;;;;;;;;106620;1312;22055;-78
2022/11/19 13:01:27;;;;;;;13.20;6.00;;;;;;;;;;106632;1312;22098;-79
2022/11/19 13:04:13;;;;;;;13.10;6.30;;;;;;;;;;106584;1312;22666;-79
2022/11/19 13:06:42;;;;;;;15.10;6.30;;;;;;;;;;106635;1311;22085;-79
2022/11/19 13:09:20;;;;;;;14.00;6.40;;;;;;;;;;106612;1311;22078;-79
2022/11/19 13:11:55;;;;;;;15.20;7.10;;;;;;;;;;106573;1311;22100;-80
2022/11/19 13:14:31;;;;;;;15.30;6.70;;;;;;;;;;106584;1311;22685;-78
2022/11/19 13:17:01;;;;;;;13.60;6.80;;;;;;;;;;106536;1311;22089;-79
2022/11/19 13:19:33;;;;;;;12.70;6.40;;;;;;;;;;106552;1311;22133;-79
2022/11/19 13:22:19;;;;;;;12.70;6.30;;;;;;;;;;106555;1312;22790;-79
2022/11/19 13:24:52;;;;;;;13.20;6.00;;;;;;;;;;106561;1311;22786;-79
2022/11/19 13:27:23;;;;;;;17.00;7.40;;;;;;;;;;106555;1312;22128;-78
2022/11/19 13:30:15;;;;;;;13.80;7.00;;;;;;;;;;106569;1310;22451;-77
2022/11/19 13:32:47;;;;;;;14.50;7.10;;;;;;;;;;106546;1310;22084;-77
2022/11/19 13:35:22;;;;;;;23.70;9.50;;;;;;;;;;106651;1309;22825;-77
2022/11/19 13:37:59;;;;;;;24.30;9.90;;;;;;;;;;106542;1312;22063;-78
2022/11/19 13:40:42;;;;;;;23.90;9.50;;;;;;;;;;106593;1312;22736;-77
2022/11/19 13:46:08;;;;;;;17.70;7.40;;;;;;;;;;106749;1303;22137;-76
2022/11/19 13:48:40;;;;;;;16.60;6.70;;;;;;;;;;106548;1310;22114;-77
2022/11/19 13:51:17;;;;;;;27.70;10.60;;;;;;;;;;106576;1309;21960;-77
2022/11/19 13:53:47;;;;;;;21.50;9.50;;;;;;;;;;106651;1311;22675;-77
2022/11/19 13:56:16;;;;;;;18.00;8.20;;;;;;;;;;106607;1311;22146;-77
2022/11/19 13:58:48;;;;;;;15.30;7.30;;;;;;;;;;106864;1291;21959;-77
2022/11/19 14:01:39;;;;;;;13.70;5.60;;;;;;;;;;106572;1312;22136;-77
2022/11/19 14:04:26;;;;;;;15.90;6.80;;;;;;;;;;106598;1311;22087;-77
2022/11/19 14:07:21;;;;;;;20.70;8.70;;;;;;;;;;106585;1312;22044;-77
2022/11/19 14:28:43;;;;;;;24.90;10.40;;;;;;;;;;102098;1322;22493;-83
2022/11/19 14:31:10;;;;;;;24.00;9.70;;;;;;;;;;101419;1320;1243495;-82
2022/11/19 14:33:46;;;;;;;30.70;10.40;;;;;;;;;;102343;1307;23355;-82
2022/11/19 14:36:18;;;;;;;26.60;10.20;;;;;;;;;;102676;1315;22473;-82
2022/11/19 14:38:53;;;;;;;30.40;12.00;;;;;;;;;;102543;1316;23077;-82
2022/11/19 14:41:41;;;;;;;33.20;12.30;;;;;;;;;;102855;1314;25350;-77
2022/11/19 14:44:23;;;;;;;29.80;11.20;;;;;;;;;;102494;1316;24375;-83
2022/11/19 14:46:50;;;;;;;26.90;10.80;;;;;;;;;;102705;1316;22693;-81
2022/11/19 14:49:29;;;;;;;27.50;10.30;;;;;;;;;;102625;1316;22497;-78
2022/11/19 14:51:56;;;;;;;26.50;9.90;;;;;;;;;;102805;1312;22488;-82
2022/11/19 14:54:28;;;;;;;26.60;10.80;;;;;;;;;;103501;1303;24265;-81
2022/11/19 14:57:01;;;;;;;34.60;12.70;;;;;;;;;;103737;1304;25286;-78
2022/11/19 14:59:31;;;;;;;35.40;13.10;;;;;;;;;;103754;1288;22596;-79
2022/11/19 15:02:16;;;;;;;37.30;13.90;;;;;;;;;;103550;1304;24327;-82
2022/11/19 15:04:49;;;;;;;40.10;14.00;;;;;;;;;;103834;1304;23065;-80
2022/11/19 15:07:24;;;;;;;40.30;14.70;;;;;;;;;;103884;1296;22525;-80
2022/11/19 15:09:51;;;;;;;50.70;17.30;;;;;;;;;;103478;1306;25342;-79
2022/11/19 15:12:19;;;;;;;63.90;19.90;;;;;;;;;;103560;1304;25374;-81
2022/11/19 15:15:05;;;;;;;69.40;22.90;;;;;;;;;;103479;1306;25446;-77
2022/11/19 15:17:34;;;;;;;60.80;21.60;;;;;;;;;;103420;1306;24039;-79
2022/11/19 15:20:17;;;;;;;53.80;18.50;;;;;;;;;;103890;1307;25295;-81